createdAt,value
2022-09-06T00:03:08.514Z,20.40
2022-09-06T00:08:10.433Z,19.48
2022-09-06T00:13:13.249Z,20.33
2022-09-06T00:18:14.805Z,20.25
2022-09-06T00:23:16.396Z,20.23
2022-09-06T00:28:19.713Z,19.55
2022-09-06T00:33:21.306Z,19.83
2022-09-06T00:38:22.898Z,21.13
2022-09-06T00:43:25.256Z,20.55
2022-09-06T00:48:27.077Z,20.17
2022-09-06T00:53:30.575Z,19.25
2022-09-06T00:58:32.186Z,19.20
2022-09-06T01:03:35.202Z,19.60
2022-09-06T01:09:10.968Z,18.95
2022-09-06T01:14:19.816Z,18.80
2022-09-06T01:19:47.386Z,18.27
2022-09-06T01:25:10.261Z,19.48
2022-09-06T01:30:14.492Z,19.58
2022-09-06T01:35:40.905Z,22.48
2022-09-06T01:40:42.489Z,21.48
2022-09-06T01:46:12.858Z,20.92
2022-09-06T01:51:33.775Z,20.45
2022-09-06T01:56:41.415Z,20.58
2022-09-06T02:02:05.711Z,20.38
2022-09-06T02:07:20.773Z,21.15
2022-09-06T02:12:25.266Z,21.05
2022-09-06T02:17:31.986Z,21.08
2022-09-06T02:22:40.330Z,20.23
2022-09-06T02:27:42.051Z,21.75
2022-09-06T02:32:50.653Z,20.70
2022-09-06T02:37:52.518Z,20.98
2022-09-06T02:42:54.179Z,20.67
2022-09-06T02:47:55.770Z,19.60
2022-09-06T02:53:09.908Z,19.88
2022-09-06T02:58:12.187Z,19.58
2022-09-06T03:03:13.944Z,20.90
2022-09-06T03:08:17.146Z,20.15
2022-09-06T03:13:19.599Z,20.20
2022-09-06T03:18:21.197Z,20.88
2022-09-06T03:23:25.560Z,20.50
2022-09-06T03:28:27.846Z,21.13
2022-09-06T03:33:29.537Z,21.48
2022-09-06T03:38:31.201Z,21.13
2022-09-06T03:43:32.953Z,20.25
2022-09-06T03:48:34.538Z,21.00
2022-09-06T03:53:36.140Z,20.88
2022-09-06T03:58:37.829Z,24.40
2022-09-06T04:03:40.246Z,22.10
2022-09-06T04:08:42.051Z,21.75
2022-09-06T04:13:43.634Z,20.85
2022-09-06T04:18:45.257Z,22.17
2022-09-06T04:23:46.794Z,21.13
2022-09-06T04:28:48.423Z,21.13
2022-09-06T04:33:50.068Z,19.83
2022-09-06T04:38:51.707Z,21.95
2022-09-06T04:43:53.354Z,20.75
2022-09-06T04:48:55.436Z,22.23
2022-09-06T04:53:57.076Z,19.38
2022-09-06T04:58:58.681Z,21.65
2022-09-06T05:04:00.225Z,21.98
2022-09-06T05:09:02.026Z,21.17
2022-09-06T05:14:06.400Z,19.70
2022-09-06T05:19:08.995Z,21.23
2022-09-06T05:24:11.315Z,19.17
2022-09-06T05:29:12.975Z,19.33
2022-09-06T05:34:15.098Z,18.00
2022-09-06T05:39:19.160Z,18.00
2022-09-06T05:44:20.726Z,19.40
2022-09-06T05:49:22.323Z,18.58
2022-09-06T05:54:24.424Z,17.73
2022-09-06T05:59:26.520Z,17.80
2022-09-06T06:04:28.074Z,18.05
2022-09-06T06:09:29.650Z,17.50
2022-09-06T06:14:31.457Z,16.88
2022-09-06T06:19:33.068Z,18.98
2022-09-06T06:24:35.172Z,18.10
2022-09-06T06:29:36.806Z,18.25
2022-09-06T06:34:38.374Z,17.83
2022-09-06T06:39:40.154Z,18.38
2022-09-06T06:44:41.737Z,17.73
2022-09-06T06:49:43.319Z,19.65
2022-09-06T06:54:44.899Z,16.92
2022-09-06T06:59:46.459Z,17.70
2022-09-06T07:04:48.031Z,18.58
2022-09-06T07:15:13.938Z,16.55
2022-09-06T07:20:16.303Z,16.10
2022-09-06T07:25:21.505Z,16.52
2022-09-06T07:30:23.374Z,15.35
2022-09-06T07:35:26.531Z,15.25
2022-09-06T07:40:30.533Z,14.57
2022-09-06T07:45:32.085Z,15.60
2022-09-06T07:50:49.764Z,14.57
2022-09-06T07:55:52.147Z,15.88
2022-09-06T08:00:53.801Z,16.92
2022-09-06T08:06:11.151Z,16.90
2022-09-06T08:11:13.091Z,16.92
2022-09-06T08:16:16.898Z,16.60
2022-09-06T08:21:19.084Z,15.35
2022-09-06T08:26:22.748Z,15.27
2022-09-06T08:31:24.488Z,15.63
2022-09-06T08:36:32.614Z,15.75
2022-09-06T08:41:41.784Z,16.70
2022-09-06T08:46:57.550Z,15.63
2022-09-06T08:52:30.331Z,16.60
2022-09-06T08:58:00.851Z,15.77
2022-09-06T09:03:17.158Z,15.57
2022-09-06T09:08:27.508Z,16.15
2022-09-06T09:13:35.548Z,17.38
2022-09-06T09:18:39.808Z,16.10
2022-09-06T09:23:41.407Z,16.92
2022-09-06T09:29:27.476Z,16.15
2022-09-06T09:34:35.580Z,17.55
2022-09-06T09:39:39.432Z,16.73
2022-09-06T09:44:44.915Z,17.27
2022-09-06T09:49:46.474Z,16.55
2022-09-06T09:54:50.723Z,16.70
2022-09-06T09:59:58.264Z,16.15
2022-09-06T10:05:25.537Z,16.17
2022-09-06T10:10:30.290Z,15.35
2022-09-06T10:15:58.852Z,16.23
2022-09-06T10:21:13.393Z,15.82
2022-09-06T10:26:31.015Z,15.70
2022-09-06T10:31:35.754Z,15.93
2022-09-06T10:36:44.811Z,15.77
2022-09-06T10:42:05.891Z,16.60
2022-09-06T10:47:11.738Z,14.98
2022-09-06T10:52:29.982Z,16.10
2022-09-06T11:09:13.134Z,15.90
2022-09-06T11:14:15.618Z,15.40
2022-09-06T11:19:27.538Z,15.40
2022-09-06T11:24:47.886Z,13.63
2022-09-06T11:29:56.569Z,14.40
2022-09-06T11:35:01.188Z,14.90
2022-09-06T11:40:26.737Z,14.93
2022-09-06T11:45:49.392Z,15.18
2022-09-06T11:50:54.133Z,15.05
2022-09-06T11:56:02.050Z,16.10
2022-09-06T12:01:29.841Z,18.55
2022-09-06T12:06:40.614Z,18.73
2022-09-06T12:11:46.178Z,17.20
2022-09-06T12:17:07.177Z,12.43
2022-09-06T12:22:30.048Z,11.68
2022-09-06T12:27:39.178Z,9.95
2022-09-06T12:32:43.969Z,9.00
2022-09-06T12:37:55.917Z,8.70
2022-09-06T12:42:58.429Z,8.13
2022-09-06T12:48:08.977Z,8.32
2022-09-06T12:53:24.491Z,7.45
2022-09-06T12:58:29.637Z,7.65
2022-09-06T13:03:34.246Z,7.00
2022-09-06T13:08:47.268Z,6.55
2022-09-06T13:13:54.061Z,7.00
2022-09-06T13:19:11.708Z,6.68
2022-09-06T13:24:28.356Z,6.38
2022-09-06T13:29:32.100Z,6.85
2022-09-06T13:34:34.295Z,7.30
2022-09-06T13:39:41.214Z,7.15
2022-09-06T13:44:42.876Z,8.05
2022-09-06T13:49:44.507Z,7.13
2022-09-06T13:54:47.890Z,7.68
2022-09-06T13:59:49.464Z,7.15
2022-09-06T14:04:51.201Z,7.00
2022-09-06T14:09:52.867Z,6.75
2022-09-06T14:14:54.494Z,7.10
2022-09-06T14:19:56.141Z,7.68
2022-09-06T14:24:57.842Z,8.95
2022-09-06T14:29:59.520Z,10.20
2022-09-06T14:35:02.074Z,10.25
2022-09-06T14:40:04.864Z,10.35
2022-09-06T14:45:07.115Z,11.00
2022-09-06T14:50:09.240Z,9.88
2022-09-06T14:55:11.032Z,9.85
2022-09-06T15:00:13.359Z,10.05
2022-09-06T15:05:15.067Z,10.40
2022-09-06T15:10:16.707Z,9.80
2022-09-06T15:15:18.478Z,10.98
2022-09-06T15:20:20.772Z,10.93
2022-09-06T15:25:22.425Z,10.95
2022-09-06T15:35:43.953Z,10.75
2022-09-06T15:40:45.775Z,9.75
2022-09-06T15:45:50.203Z,10.30
2022-09-06T15:50:52.070Z,10.70
2022-09-06T15:55:59.181Z,10.60
2022-09-06T16:01:05.634Z,10.55
2022-09-06T16:11:36.775Z,10.45
2022-09-06T16:16:40.547Z,9.80
2022-09-06T16:21:43.112Z,9.60
2022-09-06T16:26:46.648Z,9.02
2022-09-06T16:31:48.390Z,9.95
2022-09-06T16:36:50.185Z,9.93
2022-09-06T16:41:51.806Z,9.65
2022-09-06T16:46:56.041Z,9.00
2022-09-06T16:51:57.609Z,9.40
2022-09-06T16:57:01.161Z,9.18
2022-09-06T17:02:03.186Z,9.77
2022-09-06T17:07:04.960Z,9.23
2022-09-06T17:12:06.687Z,8.73
2022-09-06T17:17:09.921Z,8.85
2022-09-06T17:22:12.778Z,8.00
2022-09-06T17:27:14.695Z,7.97
2022-09-06T17:32:16.394Z,8.02
2022-09-06T17:37:18.087Z,10.10
2022-09-06T17:42:19.711Z,11.15
2022-09-06T17:47:21.368Z,12.43
2022-09-06T17:52:22.963Z,12.93
2022-09-06T17:57:25.048Z,9.38
2022-09-06T18:02:26.729Z,9.10
2022-09-06T18:07:28.321Z,9.82
2022-09-06T18:12:30.918Z,8.98
2022-09-06T18:17:32.615Z,9.10
2022-09-06T18:22:34.327Z,9.60
2022-09-06T18:27:35.954Z,9.63
2022-09-06T18:32:37.770Z,9.68
2022-09-06T18:37:39.398Z,10.88
2022-09-06T18:42:44.618Z,11.13
2022-09-06T18:47:46.230Z,11.27
2022-09-06T18:52:47.830Z,10.70
2022-09-06T18:57:49.439Z,12.70
2022-09-06T19:02:51.138Z,11.30
2022-09-06T19:07:52.806Z,11.50
2022-09-06T19:12:54.519Z,11.50
2022-09-06T19:17:57.020Z,12.43
2022-09-06T19:22:58.620Z,13.05
2022-09-06T19:28:00.394Z,11.50
2022-09-06T19:33:02.010Z,11.98
2022-09-06T19:38:03.923Z,13.43
2022-09-06T19:43:05.532Z,12.95
2022-09-06T19:48:08.163Z,11.75
2022-09-06T19:53:09.764Z,12.55
2022-09-06T19:58:11.476Z,12.88
2022-09-06T20:03:13.142Z,12.73
2022-09-06T20:08:14.993Z,12.20
2022-09-06T20:13:16.581Z,13.38
2022-09-06T20:18:18.510Z,12.63
2022-09-06T20:23:20.411Z,12.18
2022-09-06T20:28:21.987Z,11.57
2022-09-06T20:33:23.686Z,12.13
2022-09-06T20:38:25.731Z,12.57
2022-09-06T20:43:27.866Z,12.18
2022-09-06T20:48:32.244Z,13.02
2022-09-06T20:53:37.703Z,13.57
2022-09-06T20:58:40.815Z,11.93
2022-09-06T21:03:42.992Z,13.20
2022-09-06T21:08:44.942Z,12.85
2022-09-06T21:13:52.262Z,13.13
2022-09-06T21:18:56.654Z,13.68
2022-09-06T21:24:00.640Z,13.82
2022-09-06T21:29:03.524Z,13.82
2022-09-06T21:34:08.532Z,14.55
2022-09-06T21:39:13.017Z,13.95
2022-09-06T21:44:14.716Z,13.68
2022-09-06T21:49:16.469Z,15.35
2022-09-06T21:54:18.116Z,14.02
2022-09-06T21:59:19.838Z,14.10
2022-09-06T22:04:21.430Z,15.82
2022-09-06T22:09:23.083Z,13.70
2022-09-06T22:14:24.700Z,15.00
2022-09-06T22:19:26.542Z,15.05
2022-09-06T22:24:28.408Z,15.95
2022-09-06T22:29:30.424Z,15.27
2022-09-06T22:34:32.253Z,15.43
2022-09-06T22:39:34.134Z,15.43
2022-09-06T22:44:36.002Z,15.05
2022-09-06T22:49:37.817Z,14.68
2022-09-06T22:54:40.331Z,13.63
2022-09-06T22:59:42.148Z,15.07
2022-09-06T23:04:44.006Z,15.90
2022-09-06T23:09:45.840Z,15.05
2022-09-06T23:14:47.695Z,14.68
2022-09-06T23:19:49.467Z,15.02
2022-09-06T23:24:51.242Z,15.07
2022-09-06T23:29:53.042Z,16.60
2022-09-06T23:34:55.864Z,15.15
2022-09-06T23:39:57.776Z,14.38
2022-09-06T23:44:59.695Z,13.98
2022-09-06T23:50:01.588Z,14.32
2022-09-06T23:55:04.042Z,15.07
